Time;durP1;ratioP1;P1;durP2;ratioP2;P2;SDS_P1;SDS_P2;PMS_P1;PMS_P2;Temp;Humidity;BMP_temperature;BMP_pressure;BME280_temperature;BME280_humidity;BME280_pressure;Samples;Min_cycle;Max_cycle;Signal;HPM_P1;HPM_P2
2023/03/01 00:00:34;;;;;;;;;;;;;;;;;;5050674;28;2305;-55
2023/03/01 00:02:59;;;;;;;;;;;;;;;;;;5037034;28;1744;-56
2023/03/01 00:05:24;;;;;;;;;;;;;;;;;;5050979;28;1214;-56
2023/03/01 00:07:52;;;;;;;;;;;;;;;;;;5050720;28;1096;-56
2023/03/01 00:10:17;;;;;;;;;;;;;;;;;;5050888;28;1190;-55
2023/03/01 00:12:42;;;;;;;;;;;;;;;;;;5050776;28;1131;-56
2023/03/01 00:15:08;;;;;;;;;;;;;;;;;;5050618;28;1167;-56
2023/03/01 00:17:33;;;;;;;;;;;;;;;;;;5049194;28;2583;-56
2023/03/01 00:19:58;;;;;;;;;;;;;;;;;;5050939;28;1159;-56
2023/03/01 00:22:24;;;;;;;;;;;;;;;;;;5050672;28;1918;-57
2023/03/01 00:24:49;;;;;;;;;;;;;;;;;;5050887;28;1552;-56
2023/03/01 00:27:14;;;;;;;;;;;;;;;;;;5051271;28;1185;-56
2023/03/01 00:29:39;;;;;;;;;;;;;;;;;;5050442;28;1179;-56
2023/03/01 00:32:05;;;;;;;;;;;;;;;;;;5041189;28;1523;-57
2023/03/01 00:34:30;;;;;;;;;;;;;;;;;;5046701;28;1105;-56
2023/03/01 00:36:55;;;;;;;;;;;;;;;;;;5050836;28;1096;-56
2023/03/01 00:39:20;;;;;;;;;;;;;;;;;;5050633;28;1227;-56
2023/03/01 00:41:46;;;;;;;;;;;;;;;;;;5050408;28;2001;-56
2023/03/01 00:44:11;;;;;;;;;;;;;;;;;;5082835;28;1158;-56
2023/03/01 00:46:37;;;;;;;;;;;;;;;;;;5050801;28;1092;-57
2023/03/01 00:49:04;;;;;;;;;;;;;;;;;;5048300;28;1583;-55
2023/03/01 00:51:29;;;;;;;;;;;;;;;;;;5046295;28;1174;-56
2023/03/01 00:53:56;;;;;;;;;;;;;;;;;;5050062;28;1147;-56
2023/03/01 00:56:21;;;;;;;;;;;;;;;;;;5052440;28;1112;-57
2023/03/01 00:58:47;;;;;;;;;;;;;;;;;;5054520;28;1100;-56
2023/03/01 01:01:19;;;;;;;;;;;;;;;;;;5051474;28;1962;-57
2023/03/01 01:03:48;;;;;;;;;;;;;;;;;;5042426;28;1388;-57
2023/03/01 01:06:18;;;;;;;;;;;;;;;;;;5054272;28;1127;-56
2023/03/01 01:08:43;;;;;;;;;;;;;;;;;;5053934;28;1167;-56
2023/03/01 01:11:09;;;;;;;;;;;;;;;;;;5053535;28;1167;-56
2023/03/01 01:13:34;;;;;;;;;;;;;;;;;;5054183;28;1096;-56
2023/03/01 01:16:02;;;;;;;;;;;;;;;;;;5053639;28;1100;-57
2023/03/01 01:18:28;;;;;;;;;;;;;;;;;;5053964;28;1140;-56
2023/03/01 01:20:53;;;;;;;;;;;;;;;;;;5054004;28;1906;-57
2023/03/01 01:23:18;;;;;;;;;;;;;;;;;;5054100;28;1199;-57
2023/03/01 01:25:43;;;;;;;;;;;;;;;;;;5053253;28;1166;-56
2023/03/01 01:28:09;;;;;;;;;;;;;;;;;;5053683;28;1096;-57
2023/03/01 01:30:34;;;;;;;;;;;;;;;;;;5053980;28;1216;-56
2023/03/01 01:32:59;;;;;;;;;;;;;;;;;;5039782;28;1673;-55
2023/03/01 01:35:24;;;;;;;;;;;;;;;;;;5053876;28;1179;-58
2023/03/01 01:37:50;;;;;;;;;;;;;;;;;;5053244;28;1140;-56
2023/03/01 01:40:15;;;;;;;;;;;;;;;;;;5053240;28;1364;-58
2023/03/01 01:42:40;;;;;;;;;;;;;;;;;;5053082;28;1913;-56
2023/03/01 01:45:25;;;;;;;;;;;;;;;;;;5053521;28;1080;-56
2023/03/01 01:47:51;;;;;;;;;;;;;;;;;;5053225;28;1540;-56
2023/03/01 01:50:16;;;;;;;;;;;;;;;;;;5082986;28;1717;-56
2023/03/01 01:52:41;;;;;;;;;;;;;;;;;;5053704;28;1204;-56
2023/03/01 01:55:08;;;;;;;;;;;;;;;;;;5084869;28;1174;-56
2023/03/01 01:57:37;;;;;;;;;;;;;;;;;;5086000;28;1202;-56
2023/03/01 02:00:07;;;;;;;;;;;;;;;;;;5053143;28;1286;-54
2023/03/01 02:02:32;;;;;;;;;;;;;;;;;;5039867;28;1968;-56
2023/03/01 02:05:03;;;;;;;;;;;;;;;;;;5052321;28;1171;-57
2023/03/01 02:07:28;;;;;;;;;;;;;;;;;;5084339;28;1143;-57
2023/03/01 02:09:54;;;;;;;;;;;;;;;;;;5085223;28;1230;-56
2023/03/01 02:12:20;;;;;;;;;;;;;;;;;;5052713;28;1100;-57
2023/03/01 02:14:45;;;;;;;;;;;;;;;;;;5085208;28;1123;-57
2023/03/01 02:17:14;;;;;;;;;;;;;;;;;;5052952;28;1307;-57
2023/03/01 02:19:42;;;;;;;;;;;;;;;;;;5053181;28;1100;-57
2023/03/01 02:22:13;;;;;;;;;;;;;;;;;;5052451;28;1990;-58
2023/03/01 02:24:49;;;;;;;;;;;;;;;;;;5052933;28;1155;-58
2023/03/01 02:27:14;;;;;;;;;;;;;;;;;;5084929;28;1127;-56
2023/03/01 02:29:40;;;;;;;;;;;;;;;;;;5084651;28;1091;-56
2023/03/01 02:32:05;;;;;;;;;;;;;;;;;;5043382;28;1539;-56
2023/03/01 02:34:31;;;;;;;;;;;;;;;;;;5047767;28;1178;-56
2023/03/01 02:36:57;;;;;;;;;;;;;;;;;;5084674;28;1170;-56
2023/03/01 02:39:34;;;;;;;;;;;;;;;;;;5052077;28;1182;-57
2023/03/01 02:42:00;;;;;;;;;;;;;;;;;;5052272;28;1914;-56
2023/03/01 02:44:25;;;;;;;;;;;;;;;;;;5052136;28;1116;-56
2023/03/01 02:46:51;;;;;;;;;;;;;;;;;;5084589;28;1103;-56
2023/03/01 02:49:26;;;;;;;;;;;;;;;;;;5048949;28;1532;-55
2023/03/01 02:51:59;;;;;;;;;;;;;;;;;;5052351;28;1156;-56
2023/03/01 02:54:25;;;;;;;;;;;;;;;;;;5052405;28;1088;-56
2023/03/01 02:56:50;;;;;;;;;;;;;;;;;;5051653;28;1143;-56
2023/03/01 02:59:19;;;;;;;;;;;;;;;;;;5051976;28;1154;-57
2023/03/01 03:01:46;;;;;;;;;;;;;;;;;;5050188;28;1986;-56
2023/03/01 03:04:16;;;;;;;;;;;;;;;;;;5051929;28;1187;-57
2023/03/01 03:06:42;;;;;;;;;;;;;;;;;;5051966;28;1082;-56
2023/03/01 03:09:07;;;;;;;;;;;;;;;;;;5051640;28;1131;-56
2023/03/01 03:11:33;;;;;;;;;;;;;;;;;;5084194;28;1264;-56
2023/03/01 03:13:58;;;;;;;;;;;;;;;;;;5051739;28;1112;-56
2023/03/01 03:16:24;;;;;;;;;;;;;;;;;;5051717;28;1101;-57
2023/03/01 03:18:49;;;;;;;;;;;;;;;;;;5050477;28;1076;-56
2023/03/01 03:21:14;;;;;;;;;;;;;;;;;;5051566;28;1917;-57
2023/03/01 03:23:40;;;;;;;;;;;;;;;;;;5051813;28;1104;-56
2023/03/01 03:26:05;;;;;;;;;;;;;;;;;;5051526;28;1147;-56
2023/03/01 03:28:31;;;;;;;;;;;;;;;;;;5051423;28;1164;-56
2023/03/01 03:30:56;;;;;;;;;;;;;;;;;;5050958;28;1155;-56
2023/03/01 03:33:21;;;;;;;;;;;;;;;;;;5037312;28;1760;-56
2023/03/01 03:35:47;;;;;;;;;;;;;;;;;;5051566;28;1108;-56
2023/03/01 03:38:15;;;;;;;;;;;;;;;;;;5083646;28;1299;-56
2023/03/01 03:40:50;;;;;;;;;;;;;;;;;;5051350;28;1909;-56
2023/03/01 03:43:17;;;;;;;;;;;;;;;;;;5051151;28;1084;-58
2023/03/01 03:45:43;;;;;;;;;;;;;;;;;;5050959;28;1183;-54
2023/03/01 03:48:09;;;;;;;;;;;;;;;;;;5051076;28;1080;-57
2023/03/01 03:50:34;;;;;;;;;;;;;;;;;;5048435;28;1697;-57
2023/03/01 03:53:00;;;;;;;;;;;;;;;;;;5051176;28;1160;-55
2023/03/01 03:55:30;;;;;;;;;;;;;;;;;;5051031;28;1206;-56
2023/03/01 03:57:56;;;;;;;;;;;;;;;;;;5081943;28;1148;-56
2023/03/01 04:00:23;;;;;;;;;;;;;;;;;;5049762;28;1161;-57
2023/03/01 04:02:49;;;;;;;;;;;;;;;;;;5049006;28;1918;-57
2023/03/01 04:05:15;;;;;;;;;;;;;;;;;;5051051;28;1092;-56
2023/03/01 04:07:40;;;;;;;;;;;;;;;;;;5050928;28;1235;-56
2023/03/01 04:10:06;;;;;;;;;;;;;;;;;;5051170;28;1245;-56
2023/03/01 04:12:33;;;;;;;;;;;;;;;;;;5051490;28;1167;-56
2023/03/01 04:14:59;;;;;;;;;;;;;;;;;;5051102;28;1297;-55
2023/03/01 04:17:24;;;;;;;;;;;;;;;;;;5050599;28;1279;-56
2023/03/01 04:19:49;;;;;;;;;;;;;;;;;;5051188;28;1139;-56
2023/03/01 04:22:18;;;;;;;;;;;;;;;;;;5050666;28;1914;-57
2023/03/01 04:24:43;;;;;;;;;;;;;;;;;;5050725;28;1100;-56
2023/03/01 04:27:08;;;;;;;;;;;;;;;;;;5050937;28;1177;-57
2023/03/01 04:29:34;;;;;;;;;;;;;;;;;;5051349;28;1117;-57
2023/03/01 04:31:59;;;;;;;;;;;;;;;;;;5046658;28;1657;-56
2023/03/01 04:34:26;;;;;;;;;;;;;;;;;;5048781;28;1172;-56
2023/03/01 04:36:52;;;;;;;;;;;;;;;;;;5054642;28;1155;-55
2023/03/01 04:39:17;;;;;;;;;;;;;;;;;;5054309;28;1299;-55
2023/03/01 04:41:45;;;;;;;;;;;;;;;;;;5054141;28;1985;-56
2023/03/01 04:44:10;;;;;;;;;;;;;;;;;;5054343;28;1104;-55
2023/03/01 04:46:36;;;;;;;;;;;;;;;;;;5054781;28;1301;-55
2023/03/01 04:49:02;;;;;;;;;;;;;;;;;;5051213;28;1555;-56
2023/03/01 04:51:27;;;;;;;;;;;;;;;;;;5054772;28;1175;-56
2023/03/01 04:53:52;;;;;;;;;;;;;;;;;;5054464;28;1092;-57
2023/03/01 04:56:18;;;;;;;;;;;;;;;;;;5052594;28;2818;-53
2023/03/01 04:58:43;;;;;;;;;;;;;;;;;;5052809;28;1480;-58
2023/03/01 05:01:14;;;;;;;;;;;;;;;;;;5053628;28;1989;-56
2023/03/01 05:03:40;;;;;;;;;;;;;;;;;;5042123;28;1214;-57
2023/03/01 05:06:05;;;;;;;;;;;;;;;;;;5054273;28;1100;-57
2023/03/01 05:08:34;;;;;;;;;;;;;;;;;;5054254;28;1258;-57
2023/03/01 05:10:59;;;;;;;;;;;;;;;;;;5053491;28;1099;-56
2023/03/01 05:13:24;;;;;;;;;;;;;;;;;;5054101;28;1154;-56
2023/03/01 05:15:56;;;;;;;;;;;;;;;;;;5053726;28;1186;-56
2023/03/01 05:18:25;;;;;;;;;;;;;;;;;;5086352;28;1115;-56
2023/03/01 05:20:51;;;;;;;;;;;;;;;;;;5053909;28;1914;-56
2023/03/01 05:23:18;;;;;;;;;;;;;;;;;;5053629;28;1171;-56
2023/03/01 05:25:43;;;;;;;;;;;;;;;;;;5052007;28;1124;-55
2023/03/01 05:28:11;;;;;;;;;;;;;;;;;;5053826;28;1092;-56
2023/03/01 05:30:38;;;;;;;;;;;;;;;;;;5053588;28;1237;-57
2023/03/01 05:33:04;;;;;;;;;;;;;;;;;;5039613;28;1729;-56
2023/03/01 05:35:29;;;;;;;;;;;;;;;;;;5053832;28;1092;-55
2023/03/01 05:37:54;;;;;;;;;;;;;;;;;;5085479;28;1111;-56
2023/03/01 05:40:20;;;;;;;;;;;;;;;;;;5053470;28;1639;-56
2023/03/01 05:42:46;;;;;;;;;;;;;;;;;;5052260;28;1981;-55
2023/03/01 05:45:12;;;;;;;;;;;;;;;;;;5053436;28;1116;-56
2023/03/01 05:47:38;;;;;;;;;;;;;;;;;;5052655;28;1242;-55
2023/03/01 05:50:03;;;;;;;;;;;;;;;;;;5048587;28;1737;-56
2023/03/01 05:52:28;;;;;;;;;;;;;;;;;;5053052;28;1155;-57
2023/03/01 05:54:54;;;;;;;;;;;;;;;;;;5052665;28;1302;-57
2023/03/01 05:57:20;;;;;;;;;;;;;;;;;;5052822;28;1151;-56
2023/03/01 05:59:45;;;;;;;;;;;;;;;;;;5053050;28;1088;-56
2023/03/01 06:02:10;;;;;;;;;;;;;;;;;;5043646;28;1905;-56
2023/03/01 06:04:35;;;;;;;;;;;;;;;;;;5048038;28;1140;-56
2023/03/01 06:07:01;;;;;;;;;;;;;;;;;;5051576;28;1116;-55
2023/03/01 06:09:26;;;;;;;;;;;;;;;;;;5084318;28;1224;-57
2023/03/01 06:11:51;;;;;;;;;;;;;;;;;;5052894;28;1213;-56
2023/03/01 06:14:17;;;;;;;;;;;;;;;;;;5052537;28;1104;-54
2023/03/01 06:16:42;;;;;;;;;;;;;;;;;;5084721;28;2047;-56
2023/03/01 06:19:07;;;;;;;;;;;;;;;;;;5062582;28;2067;-57
2023/03/01 06:21:33;;;;;;;;;;;;;;;;;;5064461;28;1967;-56
2023/03/01 06:23:58;;;;;;;;;;;;;;;;;;5055585;28;1163;-55
2023/03/01 06:26:23;;;;;;;;;;;;;;;;;;5054759;28;1861;-56
2023/03/01 06:28:48;;;;;;;;;;;;;;;;;;5065878;28;1913;-55
2023/03/01 06:31:14;;;;;;;;;;;;;;;;;;5051133;28;1888;-57
2023/03/01 06:33:39;;;;;;;;;;;;;;;;;;5059144;28;1835;-57
2023/03/01 06:36:04;;;;;;;;;;;;;;;;;;5057020;28;1906;-58
2023/03/01 06:38:30;;;;;;;;;;;;;;;;;;5056621;28;1870;-56
2023/03/01 06:40:56;;;;;;;;;;;;;;;;;;5062426;28;1980;-55
2023/03/01 06:43:21;;;;;;;;;;;;;;;;;;5058344;28;2110;-57
2023/03/01 06:45:47;;;;;;;;;;;;;;;;;;5052095;28;1100;-57
2023/03/01 06:48:12;;;;;;;;;;;;;;;;;;5046672;28;1131;-59
2023/03/01 06:50:37;;;;;;;;;;;;;;;;;;5051627;28;1793;-59
2023/03/01 06:53:03;;;;;;;;;;;;;;;;;;5051459;28;1246;-59
2023/03/01 06:55:28;;;;;;;;;;;;;;;;;;5051666;28;1159;-58
2023/03/01 06:57:54;;;;;;;;;;;;;;;;;;5050493;28;1095;-58
2023/03/01 07:00:20;;;;;;;;;;;;;;;;;;5051839;28;1183;-56
2023/03/01 07:02:45;;;;;;;;;;;;;;;;;;5037850;28;1906;-59
2023/03/01 07:05:10;;;;;;;;;;;;;;;;;;5050900;28;1104;-59
2023/03/01 07:07:36;;;;;;;;;;;;;;;;;;5052074;28;1147;-59
2023/03/01 07:10:01;;;;;;;;;;;;;;;;;;5051365;28;1150;-59
2023/03/01 07:12:26;;;;;;;;;;;;;;;;;;5051630;28;1163;-60
2023/03/01 07:14:51;;;;;;;;;;;;;;;;;;5051363;28;1352;-59
2023/03/01 07:17:17;;;;;;;;;;;;;;;;;;5051616;28;1098;-59
2023/03/01 07:19:42;;;;;;;;;;;;;;;;;;5051938;28;1499;-59
2023/03/01 07:22:07;;;;;;;;;;;;;;;;;;5051235;28;2248;-59
2023/03/01 07:24:33;;;;;;;;;;;;;;;;;;5051310;28;1103;-59
2023/03/01 07:26:58;;;;;;;;;;;;;;;;;;5051443;28;1100;-59
2023/03/01 07:29:24;;;;;;;;;;;;;;;;;;5049758;28;1609;-59
2023/03/01 07:31:49;;;;;;;;;;;;;;;;;;5045694;28;1594;-59
2023/03/01 07:34:14;;;;;;;;;;;;;;;;;;5041891;28;1155;-59
2023/03/01 07:36:42;;;;;;;;;;;;;;;;;;5051229;28;1131;-59
2023/03/01 07:39:08;;;;;;;;;;;;;;;;;;5050514;28;1113;-59
2023/03/01 07:41:33;;;;;;;;;;;;;;;;;;5050888;28;1965;-59
2023/03/01 07:43:58;;;;;;;;;;;;;;;;;;5050988;28;1136;-59
2023/03/01 07:46:23;;;;;;;;;;;;;;;;;;5051100;28;1208;-59
2023/03/01 07:48:49;;;;;;;;;;;;;;;;;;5051083;28;1483;-59
2023/03/01 07:51:14;;;;;;;;;;;;;;;;;;5049238;28;1258;-59
2023/03/01 07:53:39;;;;;;;;;;;;;;;;;;5050870;28;1231;-58
2023/03/01 07:56:09;;;;;;;;;;;;;;;;;;5050935;28;1091;-59
2023/03/01 07:58:35;;;;;;;;;;;;;;;;;;5050416;28;1131;-59
2023/03/01 08:01:04;;;;;;;;;;;;;;;;;;5050405;28;1905;-59
2023/03/01 08:03:29;;;;;;;;;;;;;;;;;;5036512;28;1760;-60
2023/03/01 08:05:54;;;;;;;;;;;;;;;;;;5050104;28;1159;-58
2023/03/01 08:08:20;;;;;;;;;;;;;;;;;;5050757;28;1193;-60
2023/03/01 08:10:45;;;;;;;;;;;;;;;;;;5050948;28;1119;-59
2023/03/01 08:13:10;;;;;;;;;;;;;;;;;;5050508;28;1167;-59
2023/03/01 08:15:36;;;;;;;;;;;;;;;;;;5051140;28;1016;-60
2023/03/01 08:18:01;;;;;;;;;;;;;;;;;;5050685;28;1166;-59
2023/03/01 08:20:26;;;;;;;;;;;;;;;;;;5050569;28;1206;-59
2023/03/01 08:22:51;;;;;;;;;;;;;;;;;;5050457;28;1910;-60
2023/03/01 08:25:17;;;;;;;;;;;;;;;;;;5050356;28;1120;-58
2023/03/01 08:27:42;;;;;;;;;;;;;;;;;;5050697;28;1345;-59
2023/03/01 08:30:08;;;;;;;;;;;;;;;;;;5082340;28;1069;-60
2023/03/01 08:32:37;;;;;;;;;;;;;;;;;;5039039;28;1737;-60
2023/03/01 08:35:02;;;;;;;;;;;;;;;;;;5047280;28;1700;-60
2023/03/01 08:37:30;;;;;;;;;;;;;;;;;;5048353;28;1575;-59
2023/03/01 08:39:56;;;;;;;;;;;;;;;;;;5049100;28;1104;-60
2023/03/01 08:42:21;;;;;;;;;;;;;;;;;;5050341;28;1969;-59
2023/03/01 08:44:46;;;;;;;;;;;;;;;;;;5050514;28;1178;-59
2023/03/01 08:47:12;;;;;;;;;;;;;;;;;;5050437;28;1197;-59
2023/03/01 08:49:37;;;;;;;;;;;;;;;;;;5050288;28;1107;-59
2023/03/01 08:52:03;;;;;;;;;;;;;;;;;;5050339;28;1095;-60
2023/03/01 08:54:28;;;;;;;;;;;;;;;;;;5050573;28;1127;-59
2023/03/01 08:56:54;;;;;;;;;;;;;;;;;;5050586;28;1171;-59
2023/03/01 08:59:19;;;;;;;;;;;;;;;;;;5069034;28;1385;-59
2023/03/01 09:01:44;;;;;;;;;;;;;;;;;;5045819;28;1913;-60
2023/03/01 09:04:10;;;;;;;;;;;;;;;;;;5041373;28;1093;-60
2023/03/01 09:06:35;;;;;;;;;;;;;;;;;;5049758;28;1134;-58
2023/03/01 09:09:01;;;;;;;;;;;;;;;;;;5049064;28;1225;-59
2023/03/01 09:11:26;;;;;;;;;;;;;;;;;;5081026;28;1894;-60
2023/03/01 09:13:51;;;;;;;;;;;;;;;;;;5055648;28;1935;-59
2023/03/01 09:16:17;;;;;;;;;;;;;;;;;;5050057;28;1369;-59
2023/03/01 09:18:43;;;;;;;;;;;;;;;;;;5053481;28;1752;-59
2023/03/01 09:21:12;;;;;;;;;;;;;;;;;;5053197;28;1906;-59
2023/03/01 09:23:39;;;;;;;;;;;;;;;;;;5053698;28;1099;-60
2023/03/01 09:26:08;;;;;;;;;;;;;;;;;;5053182;28;1261;-59
2023/03/01 09:28:34;;;;;;;;;;;;;;;;;;5053240;28;1487;-59
2023/03/01 09:30:59;;;;;;;;;;;;;;;;;;5053494;28;1617;-60
2023/03/01 09:33:25;;;;;;;;;;;;;;;;;;5045783;28;2096;-59
2023/03/01 09:35:55;;;;;;;;;;;;;;;;;;5047005;28;1490;-61
2023/03/01 09:38:20;;;;;;;;;;;;;;;;;;5054710;28;1475;-60
2023/03/01 09:40:46;;;;;;;;;;;;;;;;;;5054911;28;1125;-60
2023/03/01 09:43:20;;;;;;;;;;;;;;;;;;5053220;28;1969;-60
2023/03/01 09:45:46;;;;;;;;;;;;;;;;;;5053032;28;1104;-60
2023/03/01 09:48:13;;;;;;;;;;;;;;;;;;5085026;28;1151;-60
2023/03/01 09:50:39;;;;;;;;;;;;;;;;;;5087324;28;1141;-60
2023/03/01 09:53:10;;;;;;;;;;;;;;;;;;5057520;28;1163;-60
2023/03/01 09:55:35;;;;;;;;;;;;;;;;;;5085153;28;1193;-60
2023/03/01 09:58:13;;;;;;;;;;;;;;;;;;5052481;28;1253;-60
2023/03/01 10:00:47;;;;;;;;;;;;;;;;;;5052909;28;1081;-59
2023/03/01 10:03:24;;;;;;;;;;;;;;;;;;5070913;28;1918;-60
2023/03/01 10:05:56;;;;;;;;;;;;;;;;;;5084887;28;1127;-60
2023/03/01 10:08:21;;;;;;;;;;;;;;;;;;5041694;28;1252;-60
2023/03/01 10:10:47;;;;;;;;;;;;;;;;;;5052732;28;1100;-60
2023/03/01 10:13:17;;;;;;;;;;;;;;;;;;5052420;28;1147;-60
2023/03/01 10:16:02;;;;;;;;;;;;;;;;;;5082483;28;1099;-60
2023/03/01 10:18:29;;;;;;;;;;;;;;;;;;5056653;28;1176;-60
2023/03/01 10:20:58;;;;;;;;;;;;;;;;;;5067729;28;1135;-61
2023/03/01 10:23:24;;;;;;;;;;;;;;;;;;5052733;28;1136;-61
2023/03/01 10:26:08;;;;;;;;;;;;;;;;;;5050865;28;1675;-60
2023/03/01 10:28:52;;;;;;;;;;;;;;;;;;5051795;28;1508;-59
2023/03/01 10:31:22;;;;;;;;;;;;;;;;;;5051552;28;1606;-61
2023/03/01 10:33:51;;;;;;;;;;;;;;;;;;5050727;28;1125;-60
2023/03/01 10:36:16;;;;;;;;;;;;;;;;;;5051725;28;1116;-60
2023/03/01 10:38:56;;;;;;;;;;;;;;;;;;5051787;28;1805;-60
2023/03/01 10:41:25;;;;;;;;;;;;;;;;;;5052292;28;1929;-61
2023/03/01 10:43:51;;;;;;;;;;;;;;;;;;5052248;28;1184;-60
2023/03/01 10:46:22;;;;;;;;;;;;;;;;;;5052058;28;1170;-60
2023/03/01 10:48:55;;;;;;;;;;;;;;;;;;5051652;28;1211;-61
2023/03/01 10:51:21;;;;;;;;;;;;;;;;;;5084058;28;1104;-61
2023/03/01 10:53:50;;;;;;;;;;;;;;;;;;5084091;28;1571;-60
2023/03/01 10:56:15;;;;;;;;;;;;;;;;;;5050533;28;1361;-61
2023/03/01 10:59:01;;;;;;;;;;;;;;;;;;5051201;28;1155;-60
2023/03/01 11:01:27;;;;;;;;;;;;;;;;;;5037555;28;1951;-61
2023/03/01 11:04:04;;;;;;;;;;;;;;;;;;5039390;28;1164;-61
2023/03/01 11:06:30;;;;;;;;;;;;;;;;;;5051782;28;1151;-61
2023/03/01 11:08:56;;;;;;;;;;;;;;;;;;5051428;28;1191;-60
2023/03/01 11:11:21;;;;;;;;;;;;;;;;;;5051553;28;1199;-61
2023/03/01 11:13:54;;;;;;;;;;;;;;;;;;5051240;28;1104;-60
2023/03/01 11:16:26;;;;;;;;;;;;;;;;;;5083309;28;1186;-60
2023/03/01 11:19:07;;;;;;;;;;;;;;;;;;5083333;28;1175;-61
2023/03/01 11:21:32;;;;;;;;;;;;;;;;;;5083872;28;1902;-60
2023/03/01 11:23:58;;;;;;;;;;;;;;;;;;5083790;28;1225;-60
2023/03/01 11:26:23;;;;;;;;;;;;;;;;;;5083103;28;1261;-60
2023/03/01 11:28:50;;;;;;;;;;;;;;;;;;5051221;28;1378;-60
2023/03/01 11:31:16;;;;;;;;;;;;;;;;;;5083024;28;1579;-59
2023/03/01 11:33:49;;;;;;;;;;;;;;;;;;5070477;28;1186;-61
2023/03/01 11:36:31;;;;;;;;;;;;;;;;;;5049822;28;1135;-60
2023/03/01 11:38:57;;;;;;;;;;;;;;;;;;5082227;28;1903;-61
2023/03/01 11:41:32;;;;;;;;;;;;;;;;;;5035006;28;1931;-62
2023/03/01 11:44:01;;;;;;;;;;;;;;;;;;5039275;28;1543;-61
2023/03/01 11:46:45;;;;;;;;;;;;;;;;;;5045928;28;1582;-60
2023/03/01 11:49:29;;;;;;;;;;;;;;;;;;5045706;28;1304;-60
2023/03/01 11:51:57;;;;;;;;;;;;;;;;;;5046687;28;1564;-60
2023/03/01 11:54:41;;;;;;;;;;;;;;;;;;5045586;28;1657;-60
2023/03/01 11:57:16;;;;;;;;;;;;;;;;;;5043292;28;1170;-61
2023/03/01 12:00:03;;;;;;;;;;;;;;;;;;5041825;28;1332;-61
2023/03/01 12:02:37;;;;;;;;;;;;;;;;;;5043793;28;1911;-60
2023/03/01 12:05:05;;;;;;;;;;;;;;;;;;5061595;28;1422;-60
2023/03/01 12:07:40;;;;;;;;;;;;;;;;;;5038188;28;1712;-60
2023/03/01 12:10:11;;;;;;;;;;;;;;;;;;5041155;28;1257;-58
2023/03/01 12:12:45;;;;;;;;;;;;;;;;;;5046408;28;968;-60
2023/03/01 12:15:11;;;;;;;;;;;;;;;;;;5044519;28;1633;-59
2023/03/01 12:17:45;;;;;;;;;;;;;;;;;;5039728;28;1467;-60
2023/03/01 12:20:29;;;;;;;;;;;;;;;;;;5043765;28;1415;-59
2023/03/01 12:22:54;;;;;;;;;;;;;;;;;;5043557;28;1911;-59
2023/03/01 12:25:28;;;;;;;;;;;;;;;;;;5047975;28;1168;-59
2023/03/01 12:27:56;;;;;;;;;;;;;;;;;;5026586;28;1724;-61
2023/03/01 12:30:40;;;;;;;;;;;;;;;;;;5041984;28;1488;-64
2023/03/01 12:33:09;;;;;;;;;;;;;;;;;;5043343;28;1385;-62
2023/03/01 12:35:34;;;;;;;;;;;;;;;;;;5045787;28;1849;-62
2023/03/01 12:38:12;;;;;;;;;;;;;;;;;;5044318;28;1865;-65
2023/03/01 12:40:37;;;;;;;;;;;;;;;;;;5047262;28;1759;-67
2023/03/01 12:43:21;;;;;;;;;;;;;;;;;;5052365;28;1915;-64
2023/03/01 12:46:08;;;;;;;;;;;;;;;;;;5043014;28;1382;-67
2023/03/01 12:48:42;;;;;;;;;;;;;;;;;;5044085;28;2234;-63
2023/03/01 12:51:11;;;;;;;;;;;;;;;;;;5055352;28;1766;-66
2023/03/01 12:53:41;;;;;;;;;;;;;;;;;;5045868;28;1578;-66
2023/03/01 12:56:08;;;;;;;;;;;;;;;;;;5043208;28;1510;-64
2023/03/01 12:58:50;;;;;;;;;;;;;;;;;;5051223;28;1823;-66
2023/03/01 13:01:19;;;;;;;;;;;;;;;;;;5046072;28;1993;-64
2023/03/01 13:04:06;;;;;;;;;;;;;;;;;;5049317;28;1852;-65
2023/03/01 13:06:37;;;;;;;;;;;;;;;;;;5044298;28;1527;-66
2023/03/01 13:09:08;;;;;;;;;;;;;;;;;;5048968;28;1850;-66
2023/03/01 13:11:34;;;;;;;;;;;;;;;;;;5044389;28;1681;-65
2023/03/01 13:14:18;;;;;;;;;;;;;;;;;;5047663;28;1491;-64
2023/03/01 13:16:44;;;;;;;;;;;;;;;;;;5049688;28;1831;-65
2023/03/01 13:19:14;;;;;;;;;;;;;;;;;;5052591;28;1803;-64
2023/03/01 13:21:39;;;;;;;;;;;;;;;;;;5046677;28;1910;-64
2023/03/01 13:24:22;;;;;;;;;;;;;;;;;;5050914;28;1117;-63
2023/03/01 13:27:06;;;;;;;;;;;;;;;;;;5044309;28;1591;-63
2023/03/01 13:29:42;;;;;;;;;;;;;;;;;;5049514;28;1661;-62
2023/03/01 13:32:13;;;;;;;;;;;;;;;;;;5046095;28;1439;-64
2023/03/01 13:34:46;;;;;;;;;;;;;;;;;;5043781;28;1479;-63
2023/03/01 13:37:18;;;;;;;;;;;;;;;;;;5045487;28;1741;-64
2023/03/01 13:39:43;;;;;;;;;;;;;;;;;;5047699;28;1467;-63
2023/03/01 13:42:27;;;;;;;;;;;;;;;;;;5045957;28;1967;-63
2023/03/01 13:44:52;;;;;;;;;;;;;;;;;;5057578;28;1358;-63
2023/03/01 13:47:18;;;;;;;;;;;;;;;;;;5045286;28;1606;-62
2023/03/01 13:49:51;;;;;;;;;;;;;;;;;;5046719;28;1849;-62
2023/03/01 13:52:35;;;;;;;;;;;;;;;;;;5049886;28;1911;-62
2023/03/01 13:55:03;;;;;;;;;;;;;;;;;;5041984;28;1419;-64
2023/03/01 13:57:30;;;;;;;;;;;;;;;;;;5047257;28;1124;-58
2023/03/01 13:59:55;;;;;;;;;;;;;;;;;;5044605;28;1869;-58
2023/03/01 14:02:20;;;;;;;;;;;;;;;;;;5047422;28;1973;-58
2023/03/01 14:04:55;;;;;;;;;;;;;;;;;;5048547;28;1863;-58
2023/03/01 14:07:21;;;;;;;;;;;;;;;;;;5046458;28;1843;-58
2023/03/01 14:09:47;;;;;;;;;;;;;;;;;;5048169;28;1793;-55
2023/03/01 14:12:19;;;;;;;;;;;;;;;;;;5045470;28;1440;-58
2023/03/01 14:14:53;;;;;;;;;;;;;;;;;;5051723;28;1948;-57
2023/03/01 14:17:37;;;;;;;;;;;;;;;;;;5048937;28;1731;-58
2023/03/01 14:20:23;;;;;;;;;;;;;;;;;;5049138;28;1543;-55
2023/03/01 14:22:48;;;;;;;;;;;;;;;;;;5044038;28;2044;-60
2023/03/01 14:25:21;;;;;;;;;;;;;;;;;;5043167;28;1061;-57
2023/03/01 14:27:50;;;;;;;;;;;;;;;;;;5047419;28;1443;-57
2023/03/01 14:30:20;;;;;;;;;;;;;;;;;;5048954;28;1222;-58
2023/03/01 14:32:51;;;;;;;;;;;;;;;;;;5042435;28;1871;-57
2023/03/01 14:35:21;;;;;;;;;;;;;;;;;;5046784;28;1424;-57
2023/03/01 14:37:48;;;;;;;;;;;;;;;;;;5042729;28;1412;-57
2023/03/01 14:40:24;;;;;;;;;;;;;;;;;;5043401;28;1296;-57
2023/03/01 14:42:49;;;;;;;;;;;;;;;;;;5047488;28;1914;-57
2023/03/01 14:45:14;;;;;;;;;;;;;;;;;;5044568;28;1467;-58
2023/03/01 14:47:40;;;;;;;;;;;;;;;;;;5047176;28;1399;-58
2023/03/01 14:50:09;;;;;;;;;;;;;;;;;;5047365;28;1360;-58
2023/03/01 14:52:35;;;;;;;;;;;;;;;;;;5040658;28;1348;-58
2023/03/01 14:55:01;;;;;;;;;;;;;;;;;;5040870;28;1067;-58
2023/03/01 14:57:27;;;;;;;;;;;;;;;;;;5031593;28;1436;-59
2023/03/01 14:59:54;;;;;;;;;;;;;;;;;;5047072;28;1743;-58
2023/03/01 15:02:19;;;;;;;;;;;;;;;;;;5045257;28;1963;-54
2023/03/01 15:04:46;;;;;;;;;;;;;;;;;;5049398;28;1555;-58
2023/03/01 15:07:11;;;;;;;;;;;;;;;;;;5083350;28;1182;-57
2023/03/01 15:09:37;;;;;;;;;;;;;;;;;;5083044;28;1036;-58
2023/03/01 15:12:22;;;;;;;;;;;;;;;;;;5082585;28;1103;-60
2023/03/01 15:14:48;;;;;;;;;;;;;;;;;;5050346;28;1241;-58
2023/03/01 15:17:36;;;;;;;;;;;;;;;;;;5050275;28;1175;-58
2023/03/01 15:20:04;;;;;;;;;;;;;;;;;;5050661;28;1509;-58
2023/03/01 15:22:29;;;;;;;;;;;;;;;;;;5082849;28;1910;-59
2023/03/01 15:24:54;;;;;;;;;;;;;;;;;;5050595;28;1108;-57
2023/03/01 15:27:21;;;;;;;;;;;;;;;;;;5050748;28;1159;-56
2023/03/01 15:29:57;;;;;;;;;;;;;;;;;;5050325;28;1024;-63
2023/03/01 15:32:24;;;;;;;;;;;;;;;;;;5043710;28;1447;-65
2023/03/01 15:34:50;;;;;;;;;;;;;;;;;;5042803;28;1076;-63
2023/03/01 15:37:33;;;;;;;;;;;;;;;;;;5049159;28;1495;-64
2023/03/01 15:39:59;;;;;;;;;;;;;;;;;;5045476;28;1308;-65
2023/03/01 15:42:27;;;;;;;;;;;;;;;;;;5040032;28;1922;-60
2023/03/01 15:45:11;;;;;;;;;;;;;;;;;;5043516;28;1564;-60
2023/03/01 15:47:36;;;;;;;;;;;;;;;;;;5040952;28;1025;-62
2023/03/01 15:50:01;;;;;;;;;;;;;;;;;;5047246;28;1108;-61
2023/03/01 15:52:29;;;;;;;;;;;;;;;;;;5046412;28;1926;-62
2023/03/01 15:55:01;;;;;;;;;;;;;;;;;;5040318;28;2839;-60
2023/03/01 15:57:27;;;;;;;;;;;;;;;;;;5045150;28;1155;-60
2023/03/01 15:59:52;;;;;;;;;;;;;;;;;;5045743;28;2489;-61
2023/03/01 16:02:20;;;;;;;;;;;;;;;;;;5046133;28;1983;-67
2023/03/01 16:04:45;;;;;;;;;;;;;;;;;;5039605;28;984;-64
2023/03/01 16:07:11;;;;;;;;;;;;;;;;;;5049362;28;1310;-65
2023/03/01 16:09:36;;;;;;;;;;;;;;;;;;5047898;28;1092;-65
2023/03/01 16:12:01;;;;;;;;;;;;;;;;;;5047111;28;2352;-63
2023/03/01 16:14:27;;;;;;;;;;;;;;;;;;5039951;28;1936;-67
2023/03/01 16:16:52;;;;;;;;;;;;;;;;;;5048935;28;1265;-64
2023/03/01 16:19:17;;;;;;;;;;;;;;;;;;5051424;28;1654;-65
2023/03/01 16:21:43;;;;;;;;;;;;;;;;;;5048570;28;1980;-65
2023/03/01 16:24:09;;;;;;;;;;;;;;;;;;5046995;28;1317;-66
2023/03/01 16:26:34;;;;;;;;;;;;;;;;;;5050339;28;1328;-70
2023/03/01 16:28:59;;;;;;;;;;;;;;;;;;5053374;28;978;-59
2023/03/01 16:31:26;;;;;;;;;;;;;;;;;;5046178;28;1903;-56
2023/03/01 16:33:55;;;;;;;;;;;;;;;;;;5039225;28;1971;-56
2023/03/01 16:36:23;;;;;;;;;;;;;;;;;;5051090;28;1958;-56
2023/03/01 16:38:48;;;;;;;;;;;;;;;;;;5044073;28;2031;-57
2023/03/01 16:41:14;;;;;;;;;;;;;;;;;;5040106;28;1983;-57
2023/03/01 16:43:40;;;;;;;;;;;;;;;;;;5040358;28;2096;-57
2023/03/01 16:46:22;;;;;;;;;;;;;;;;;;5053543;28;1310;-56
2023/03/01 16:48:47;;;;;;;;;;;;;;;;;;5042066;28;2327;-56
2023/03/01 16:51:12;;;;;;;;;;;;;;;;;;5036558;28;1966;-57
2023/03/01 16:53:38;;;;;;;;;;;;;;;;;;5053750;28;1106;-57
2023/03/01 16:56:04;;;;;;;;;;;;;;;;;;5048306;28;1938;-56
2023/03/01 16:58:29;;;;;;;;;;;;;;;;;;5053746;28;1726;-56
2023/03/01 17:00:55;;;;;;;;;;;;;;;;;;5050375;28;1499;-57
2023/03/01 17:03:23;;;;;;;;;;;;;;;;;;5041313;28;1971;-58
2023/03/01 17:05:49;;;;;;;;;;;;;;;;;;5044568;28;1927;-57
2023/03/01 17:08:14;;;;;;;;;;;;;;;;;;5044821;28;1950;-57